Terminal Aerodrome Forecast
Issued by NWS

Home | Current Version | Previous Version | Text Only | Print | Product List | Glossary On
Versions: 1 2 3 4 5 6 7 8 9 10 11 12 13 14 15 16 17 18 19 20 21 22 23 24 25 26 27 28 29 30 31 32
000
FTUS45 KBOU 170537
TAFAPA
TAF
KAPA 170537Z 1706/1806 VRB05KT P6SM FEW140 BKN200
     FM171600 13006KT P6SM FEW140 BKN200
     FM172000 09008KT P6SM SCT120
     FM180200 16005KT P6SM FEW120=

USA.gov is the U.S. government's official web portal to all federal, state and local government web resources and services.